createdAt,value
2022-10-16T00:00:56.090Z,2.50
2022-10-16T00:03:26.542Z,3.10
2022-10-16T00:06:00.912Z,2.90
2022-10-16T00:08:27.664Z,3.10
2022-10-16T00:10:54.072Z,3.30
2022-10-16T00:13:21.689Z,2.70
2022-10-16T00:15:48.103Z,1.80
2022-10-16T00:18:15.447Z,2.20
2022-10-16T00:20:42.257Z,2.20
2022-10-16T00:23:09.137Z,1.90
2022-10-16T00:25:35.519Z,2.10
2022-10-16T00:28:01.997Z,1.90
2022-10-16T00:30:28.971Z,3.10
2022-10-16T00:32:55.885Z,4.90
2022-10-16T00:35:22.548Z,1.70
2022-10-16T00:37:48.954Z,2.90
2022-10-16T00:40:15.458Z,2.90
2022-10-16T00:42:44.762Z,2.80
2022-10-16T00:45:11.657Z,4.20
2022-10-16T00:47:42.315Z,3.50
2022-10-16T00:50:30.825Z,2.80
2022-10-16T00:52:59.503Z,2.60
2022-10-16T00:55:27.238Z,3.30
2022-10-16T00:57:53.789Z,1.80
2022-10-16T01:00:24.447Z,3.00
2022-10-16T01:03:00.030Z,2.60
2022-10-16T01:06:02.980Z,3.80
2022-10-16T01:08:45.237Z,2.30
2022-10-16T01:11:37.542Z,3.00
2022-10-16T01:14:31.037Z,3.00
2022-10-16T01:17:10.247Z,3.20
2022-10-16T01:20:12.065Z,3.30
2022-10-16T01:22:48.609Z,2.60
2022-10-16T01:25:27.280Z,2.00
2022-10-16T01:27:53.871Z,3.80
2022-10-16T01:30:31.879Z,2.90
2022-10-16T01:33:04.996Z,2.40
2022-10-16T01:35:37.086Z,3.30
2022-10-16T01:38:26.574Z,2.90
2022-10-16T01:41:01.773Z,4.20
2022-10-16T01:43:36.649Z,4.30
2022-10-16T01:46:03.830Z,4.40
2022-10-16T01:48:31.991Z,3.90
2022-10-16T01:51:06.460Z,3.70
2022-10-16T01:53:33.887Z,4.60
2022-10-16T01:56:02.642Z,4.70
2022-10-16T01:58:35.023Z,2.90
2022-10-16T02:01:03.502Z,4.00
2022-10-16T02:03:30.019Z,3.40
2022-10-16T02:05:59.275Z,3.70
2022-10-16T02:08:29.205Z,3.20
2022-10-16T02:10:57.410Z,3.60
2022-10-16T02:13:33.410Z,3.30
2022-10-16T02:16:00.304Z,3.20
2022-10-16T02:18:30.141Z,3.70
2022-10-16T02:21:01.228Z,4.40
2022-10-16T02:23:46.400Z,3.40
2022-10-16T02:26:16.369Z,3.20
2022-10-16T02:28:53.007Z,5.10
2022-10-16T02:31:27.130Z,3.50
2022-10-16T02:33:55.514Z,4.80
2022-10-16T02:36:22.710Z,4.30
2022-10-16T02:38:49.167Z,4.50
2022-10-16T02:41:15.904Z,4.60
2022-10-16T02:43:42.343Z,3.00
2022-10-16T02:46:08.868Z,4.60
2022-10-16T02:48:35.880Z,4.00
2022-10-16T02:51:02.240Z,4.40
2022-10-16T02:53:28.588Z,3.40
2022-10-16T02:55:54.925Z,3.70
2022-10-16T02:58:21.462Z,5.90
2022-10-16T03:00:47.853Z,3.50
2022-10-16T03:03:14.345Z,3.70
2022-10-16T03:05:40.763Z,4.20
2022-10-16T03:08:07.179Z,3.00
2022-10-16T03:10:33.567Z,2.90
2022-10-16T03:13:00.116Z,5.90
2022-10-16T03:15:26.836Z,3.50
2022-10-16T03:17:53.195Z,3.90
2022-10-16T03:20:19.756Z,4.30
2022-10-16T03:22:46.132Z,4.90
2022-10-16T03:25:12.509Z,3.80
2022-10-16T03:27:38.887Z,3.00
2022-10-16T03:30:05.669Z,3.80
2022-10-16T03:32:32.132Z,3.60
2022-10-16T03:34:58.487Z,4.20
2022-10-16T03:37:25.829Z,4.00
2022-10-16T03:39:52.698Z,4.50
2022-10-16T03:42:19.153Z,5.20
2022-10-16T03:44:45.531Z,3.70
2022-10-16T03:47:11.899Z,4.80
2022-10-16T03:49:38.262Z,4.00
2022-10-16T03:52:04.673Z,4.50
2022-10-16T03:54:31.054Z,5.30
2022-10-16T03:56:57.414Z,5.30
2022-10-16T03:59:23.859Z,5.30
2022-10-16T04:01:50.227Z,5.20
2022-10-16T04:04:16.591Z,4.80
2022-10-16T04:06:42.957Z,7.70
2022-10-16T04:09:09.454Z,7.90
2022-10-16T04:11:35.833Z,8.40
2022-10-16T04:14:02.176Z,6.50
2022-10-16T04:16:28.523Z,6.00
2022-10-16T04:18:58.380Z,6.10
2022-10-16T04:21:24.793Z,6.20
2022-10-16T04:23:51.210Z,6.20
2022-10-16T04:26:17.579Z,6.00
2022-10-16T04:28:44.012Z,6.20
2022-10-16T04:31:10.525Z,6.40
2022-10-16T04:33:36.909Z,5.20
2022-10-16T04:36:04.507Z,6.00
2022-10-16T04:38:31.473Z,4.50
2022-10-16T04:40:57.893Z,4.60
2022-10-16T04:43:24.441Z,3.60
2022-10-16T04:45:51.949Z,5.20
2022-10-16T04:48:19.229Z,5.80
2022-10-16T04:50:45.595Z,4.00
2022-10-16T04:53:12.184Z,4.30
2022-10-16T04:55:39.037Z,4.70
2022-10-16T04:58:06.162Z,5.10
2022-10-16T05:00:32.527Z,5.80
2022-10-16T05:03:00.480Z,4.80
2022-10-16T05:05:27.202Z,4.90
2022-10-16T05:07:53.682Z,4.40
2022-10-16T05:10:20.322Z,5.20
2022-10-16T05:12:47.419Z,5.10
2022-10-16T05:15:13.855Z,6.00
2022-10-16T05:17:42.610Z,4.90
2022-10-16T05:20:12.165Z,4.00
2022-10-16T05:22:38.823Z,6.30
2022-10-16T05:25:05.713Z,5.50
2022-10-16T05:27:32.085Z,5.50
2022-10-16T05:29:58.439Z,7.20
2022-10-16T05:32:24.809Z,5.70
2022-10-16T05:34:51.566Z,5.10
2022-10-16T05:37:17.936Z,6.00
2022-10-16T05:39:44.301Z,6.50
2022-10-16T05:42:10.701Z,6.20
2022-10-16T05:44:37.186Z,4.70
2022-10-16T05:47:03.629Z,7.20
2022-10-16T05:49:30.032Z,6.30
2022-10-16T05:51:56.413Z,4.90
2022-10-16T05:54:22.769Z,4.10
2022-10-16T05:56:49.167Z,3.90
2022-10-16T05:59:15.760Z,5.10
2022-10-16T06:01:42.180Z,5.30
2022-10-16T06:06:37.496Z,3.40
2022-10-16T06:09:04.486Z,4.10
2022-10-16T06:11:32.721Z,5.60
2022-10-16T06:14:02.804Z,5.60
2022-10-16T06:16:29.676Z,3.90
2022-10-16T06:19:00.833Z,5.60
2022-10-16T06:21:28.606Z,4.20
2022-10-16T06:23:56.727Z,3.90
2022-10-16T06:26:26.033Z,3.30
2022-10-16T06:28:52.690Z,3.70
2022-10-16T06:31:19.316Z,5.40
2022-10-16T06:33:48.071Z,4.10
2022-10-16T06:36:16.876Z,4.30
2022-10-16T06:38:44.198Z,3.20
2022-10-16T06:41:13.892Z,3.10
2022-10-16T06:43:40.608Z,3.00
2022-10-16T06:46:11.515Z,2.90
2022-10-16T06:48:38.463Z,3.20
2022-10-16T06:51:15.105Z,5.10
2022-10-16T06:54:01.751Z,3.00
2022-10-16T06:56:30.633Z,4.50
2022-10-16T06:58:57.445Z,3.20
2022-10-16T07:01:25.142Z,3.10
2022-10-16T07:03:52.336Z,3.30
2022-10-16T07:06:21.072Z,2.90
2022-10-16T07:08:48.314Z,3.00
2022-10-16T07:11:18.452Z,3.60
2022-10-16T07:13:50.804Z,3.10
2022-10-16T07:16:24.065Z,3.20
2022-10-16T07:18:55.054Z,3.50
2022-10-16T07:21:23.697Z,3.10
2022-10-16T07:23:55.363Z,3.00
2022-10-16T07:26:22.961Z,2.80
2022-10-16T07:28:50.038Z,3.20
2022-10-16T07:31:18.266Z,3.50
2022-10-16T07:33:46.179Z,3.40
2022-10-16T07:36:16.279Z,2.50
2022-10-16T07:38:44.020Z,3.50
2022-10-16T07:41:13.691Z,2.30
2022-10-16T07:43:40.358Z,3.10
2022-10-16T07:46:07.369Z,2.30
2022-10-16T07:48:35.729Z,4.20
2022-10-16T07:51:04.521Z,2.60
2022-10-16T07:53:31.512Z,4.40
2022-10-16T07:56:06.818Z,3.10
2022-10-16T07:58:34.994Z,2.20
2022-10-16T08:01:06.213Z,3.10
2022-10-16T08:03:32.804Z,2.60
2022-10-16T08:06:00.105Z,2.30
2022-10-16T08:08:27.653Z,2.10
2022-10-16T08:10:54.380Z,3.60
2022-10-16T08:13:21.028Z,2.40
2022-10-16T08:15:48.092Z,2.20
2022-10-16T08:18:15.715Z,2.30
2022-10-16T08:20:43.683Z,2.60
2022-10-16T08:23:12.884Z,2.30
2022-10-16T08:25:39.607Z,2.20
2022-10-16T08:28:08.544Z,1.00
2022-10-16T08:30:35.376Z,2.00
2022-10-16T08:33:02.613Z,1.50
2022-10-16T08:35:29.468Z,1.30
2022-10-16T08:37:55.898Z,1.70
2022-10-16T08:40:33.920Z,1.40
2022-10-16T08:43:18.858Z,1.40
2022-10-16T08:46:16.705Z,2.40
2022-10-16T08:48:52.364Z,2.20
2022-10-16T08:51:27.339Z,1.80
2022-10-16T08:54:05.716Z,1.90
2022-10-16T08:56:34.014Z,2.40
2022-10-16T08:59:02.398Z,1.30
2022-10-16T09:01:44.993Z,1.70
2022-10-16T09:04:36.020Z,1.30
2022-10-16T09:07:13.048Z,2.80
2022-10-16T09:09:45.406Z,2.00
2022-10-16T09:12:29.667Z,1.70
2022-10-16T09:15:03.018Z,2.00
2022-10-16T09:17:47.765Z,2.60
2022-10-16T09:20:54.567Z,1.70
2022-10-16T09:23:27.730Z,2.50
2022-10-16T09:25:56.601Z,2.50
2022-10-16T09:28:23.090Z,2.50
2022-10-16T09:30:50.624Z,3.00
2022-10-16T09:33:20.140Z,2.60
2022-10-16T09:35:50.908Z,1.60
2022-10-16T09:38:27.665Z,1.10
2022-10-16T09:41:02.401Z,2.50
2022-10-16T09:43:31.682Z,2.20
2022-10-16T09:46:04.446Z,2.20
2022-10-16T09:48:40.162Z,3.00
2022-10-16T09:51:17.030Z,2.70
2022-10-16T09:53:46.154Z,3.10
2022-10-16T09:56:22.347Z,2.50
2022-10-16T09:58:56.796Z,1.90
2022-10-16T10:01:30.507Z,3.20
2022-10-16T10:04:02.429Z,1.90
2022-10-16T10:06:35.319Z,1.60
2022-10-16T10:09:06.676Z,2.50
2022-10-16T10:11:50.478Z,1.80
2022-10-16T10:14:26.673Z,3.00
2022-10-16T10:17:02.734Z,3.40
2022-10-16T10:19:32.005Z,2.50
2022-10-16T10:21:59.315Z,2.20
2022-10-16T10:24:25.786Z,2.10
2022-10-16T10:27:02.025Z,1.90
2022-10-16T10:29:59.120Z,2.50
2022-10-16T10:32:45.065Z,2.00
2022-10-16T10:35:24.020Z,1.40
2022-10-16T10:38:13.598Z,2.20
2022-10-16T10:40:57.264Z,2.90
2022-10-16T10:43:42.510Z,2.20
2022-10-16T10:46:19.602Z,2.10
2022-10-16T10:48:58.902Z,2.80
2022-10-16T10:51:40.477Z,2.00
2022-10-16T10:54:36.290Z,3.40
2022-10-16T10:57:13.540Z,1.90
2022-10-16T10:59:59.374Z,2.10
2022-10-16T11:02:51.335Z,3.40
2022-10-16T11:05:28.812Z,2.50
2022-10-16T11:08:03.011Z,2.50
2022-10-16T11:10:46.644Z,2.20
2022-10-16T11:13:27.619Z,1.80
2022-10-16T11:15:59.702Z,2.10
2022-10-16T11:18:41.212Z,2.90
2022-10-16T11:21:11.503Z,2.40
2022-10-16T11:23:49.636Z,3.00
2022-10-16T11:26:22.139Z,3.10
2022-10-16T11:28:57.573Z,2.30
2022-10-16T11:31:33.222Z,4.10
2022-10-16T11:34:23.012Z,4.30
2022-10-16T11:37:06.813Z,2.20
2022-10-16T11:39:33.889Z,1.60
2022-10-16T11:42:02.914Z,0.90
2022-10-16T11:45:03.567Z,1.00
2022-10-16T11:47:59.869Z,1.90
2022-10-16T11:50:34.069Z,3.10
2022-10-16T11:53:25.614Z,3.10
2022-10-16T11:55:52.814Z,1.20
2022-10-16T11:58:47.214Z,1.30
2022-10-16T12:01:19.019Z,2.20
2022-10-16T12:04:07.515Z,1.30
2022-10-16T12:07:13.899Z,1.10
2022-10-16T12:09:42.453Z,2.20
2022-10-16T12:12:37.676Z,2.30
2022-10-16T12:15:19.781Z,2.30
2022-10-16T12:17:49.662Z,1.80
2022-10-16T12:20:21.057Z,1.90
2022-10-16T12:22:55.409Z,2.40
2022-10-16T12:25:33.481Z,2.70
2022-10-16T12:28:18.658Z,1.40
2022-10-16T12:31:00.853Z,1.10
2022-10-16T12:33:40.520Z,1.60
2022-10-16T12:36:16.428Z,2.40
2022-10-16T12:38:53.311Z,1.30
2022-10-16T12:41:30.110Z,1.20
2022-10-16T12:43:57.970Z,2.50
2022-10-16T12:46:37.660Z,1.70
2022-10-16T12:49:13.025Z,1.30
2022-10-16T12:51:40.676Z,1.80
2022-10-16T12:54:16.771Z,1.90
2022-10-16T12:56:55.320Z,1.90
2022-10-16T12:59:59.074Z,1.90
2022-10-16T13:02:42.395Z,1.00
2022-10-16T13:05:11.544Z,1.70
2022-10-16T13:08:19.279Z,1.40
2022-10-16T13:10:57.805Z,2.10
2022-10-16T13:13:24.244Z,1.20
2022-10-16T13:15:59.607Z,2.40
2022-10-16T13:18:51.254Z,1.50
2022-10-16T13:21:45.680Z,1.30
2022-10-16T13:24:39.612Z,2.00
2022-10-16T13:27:22.192Z,1.30
2022-10-16T13:29:56.230Z,2.30
2022-10-16T13:32:23.111Z,0.90
2022-10-16T13:34:50.069Z,1.10
2022-10-16T13:37:22.091Z,1.70
2022-10-16T13:39:50.660Z,2.40
2022-10-16T13:42:29.656Z,1.50
2022-10-16T13:44:57.394Z,1.30
2022-10-16T13:47:26.768Z,1.70
2022-10-16T13:50:04.204Z,2.30
2022-10-16T13:52:31.020Z,1.40
2022-10-16T13:55:00.959Z,1.10
2022-10-16T13:57:28.793Z,1.20
2022-10-16T13:59:55.198Z,2.50
2022-10-16T14:02:33.351Z,1.10
2022-10-16T14:04:59.900Z,1.50
2022-10-16T14:07:32.557Z,0.90
2022-10-16T14:10:05.081Z,1.80
2022-10-16T14:12:32.177Z,1.10
2022-10-16T14:15:00.661Z,2.20
2022-10-16T14:17:29.992Z,1.60
2022-10-16T14:20:06.628Z,1.70
2022-10-16T14:22:41.872Z,1.30
2022-10-16T14:25:34.840Z,1.90
2022-10-16T14:28:15.992Z,1.70
2022-10-16T14:31:00.245Z,1.00
2022-10-16T14:33:34.048Z,1.60
2022-10-16T14:36:09.530Z,1.10
2022-10-16T14:38:36.768Z,2.00
2022-10-16T14:41:04.778Z,1.70
2022-10-16T14:43:36.593Z,1.80
2022-10-16T14:58:24.053Z,2.60
2022-10-16T15:00:50.472Z,1.70
2022-10-16T15:03:17.067Z,1.40
2022-10-16T15:05:43.498Z,1.30
2022-10-16T15:08:09.915Z,1.90
2022-10-16T15:10:44.765Z,1.90
2022-10-16T15:13:15.324Z,1.90
2022-10-16T15:15:47.247Z,2.00
2022-10-16T15:18:16.205Z,1.90
2022-10-16T15:20:42.652Z,1.50
2022-10-16T15:23:20.574Z,1.40
2022-10-16T15:25:49.826Z,1.70
2022-10-16T15:28:19.263Z,2.50
2022-10-16T15:30:46.863Z,2.50
2022-10-16T15:33:19.136Z,2.90
2022-10-16T15:35:50.478Z,2.30
2022-10-16T15:38:17.637Z,2.70
2022-10-16T15:40:44.364Z,2.30
2022-10-16T15:43:11.453Z,1.80
2022-10-16T15:45:38.385Z,2.10
2022-10-16T15:48:05.422Z,2.00
2022-10-16T15:50:32.795Z,1.70
2022-10-16T15:52:59.286Z,1.30
2022-10-16T15:55:25.681Z,2.70
2022-10-16T15:57:52.064Z,3.00
2022-10-16T16:00:23.991Z,1.40
2022-10-16T16:02:55.011Z,1.50
2022-10-16T16:05:23.059Z,2.30
2022-10-16T16:07:50.311Z,1.80
2022-10-16T16:10:17.587Z,3.70
2022-10-16T16:12:44.058Z,5.40
2022-10-16T16:15:11.218Z,2.00
2022-10-16T16:17:37.936Z,1.70
2022-10-16T16:20:06.408Z,2.30
2022-10-16T16:22:32.901Z,2.50
2022-10-16T16:24:59.306Z,1.60
2022-10-16T16:27:26.354Z,1.80
2022-10-16T16:29:54.231Z,2.40
2022-10-16T16:32:20.672Z,3.10
2022-10-16T16:34:47.099Z,2.60
2022-10-16T16:37:13.550Z,3.10
2022-10-16T16:39:39.967Z,4.00
2022-10-16T16:42:08.331Z,4.40
2022-10-16T16:44:37.100Z,4.20
2022-10-16T16:47:05.329Z,5.90
2022-10-16T16:49:31.734Z,3.00
2022-10-16T16:51:58.314Z,2.20
2022-10-16T16:54:26.134Z,2.40
2022-10-16T16:56:52.747Z,3.40
2022-10-16T16:59:21.003Z,5.10
2022-10-16T17:01:49.206Z,2.90
2022-10-16T17:04:17.342Z,2.60
2022-10-16T17:06:44.337Z,2.20
2022-10-16T17:09:14.004Z,6.50
2022-10-16T17:11:42.461Z,4.60
2022-10-16T17:14:09.108Z,6.50
2022-10-16T17:16:37.564Z,10.80
2022-10-16T17:19:07.226Z,9.50
2022-10-16T17:21:35.879Z,6.90
2022-10-16T17:24:03.033Z,7.40
2022-10-16T17:26:30.895Z,7.30
2022-10-16T17:29:00.183Z,8.40
2022-10-16T17:31:29.637Z,6.70
2022-10-16T17:33:58.169Z,6.20
2022-10-16T17:36:24.621Z,9.60
2022-10-16T17:38:51.839Z,8.70
2022-10-16T17:41:24.171Z,6.30
2022-10-16T17:43:51.847Z,4.10
2022-10-16T17:46:21.300Z,3.10
2022-10-16T17:48:50.482Z,4.40
2022-10-16T17:51:20.191Z,7.40
2022-10-16T17:53:52.039Z,6.70
2022-10-16T17:56:19.862Z,6.10
2022-10-16T17:58:58.248Z,7.90
2022-10-16T18:01:31.150Z,6.00
2022-10-16T18:04:12.074Z,5.10
2022-10-16T18:06:39.720Z,5.60
2022-10-16T18:09:07.889Z,5.90
2022-10-16T18:11:34.714Z,5.60
2022-10-16T18:14:01.796Z,6.70
2022-10-16T18:16:30.301Z,8.80
2022-10-16T18:18:57.871Z,8.40
2022-10-16T18:21:29.592Z,7.10
2022-10-16T18:23:58.221Z,6.70
2022-10-16T18:26:25.622Z,6.30
2022-10-16T18:28:54.031Z,5.80
2022-10-16T18:31:20.957Z,4.90
2022-10-16T18:33:53.935Z,5.50
2022-10-16T18:36:23.460Z,3.80
2022-10-16T18:38:50.988Z,2.90
2022-10-16T18:41:18.091Z,3.10
2022-10-16T18:43:44.493Z,3.50
2022-10-16T18:46:16.807Z,5.50
2022-10-16T18:48:44.070Z,4.50
2022-10-16T18:51:16.569Z,5.80
2022-10-16T18:53:45.166Z,5.50
2022-10-16T18:56:14.873Z,3.20
2022-10-16T18:58:43.607Z,5.30
2022-10-16T19:01:16.628Z,4.00
2022-10-16T19:03:43.934Z,4.70
2022-10-16T19:06:13.734Z,7.90
2022-10-16T19:08:40.933Z,9.30
2022-10-16T19:11:10.991Z,7.80
2022-10-16T19:13:37.891Z,6.70
2022-10-16T19:16:19.741Z,9.50
2022-10-16T19:18:48.468Z,8.40
2022-10-16T19:21:15.891Z,6.70
2022-10-16T19:23:42.809Z,6.30
2022-10-16T19:26:13.611Z,8.30
2022-10-16T19:28:41.007Z,7.60
2022-10-16T19:31:14.946Z,8.40
2022-10-16T19:33:42.123Z,7.00
2022-10-16T19:36:09.529Z,6.00
2022-10-16T19:38:36.011Z,9.40
2022-10-16T19:41:10.483Z,3.30
2022-10-16T19:43:37.110Z,3.90
2022-10-16T19:46:08.131Z,5.90
2022-10-16T19:48:34.959Z,5.60
2022-10-16T19:51:02.002Z,6.00
2022-10-16T19:53:30.380Z,5.90
2022-10-16T19:55:57.942Z,4.60
2022-10-16T19:58:25.236Z,4.30
2022-10-16T20:00:51.844Z,7.80
2022-10-16T20:03:18.617Z,4.60
2022-10-16T20:05:56.610Z,3.20
2022-10-16T20:08:24.433Z,4.10
2022-10-16T20:10:52.781Z,17.30
2022-10-16T20:13:24.486Z,16.10
2022-10-16T20:15:50.992Z,10.30
2022-10-16T20:18:17.878Z,6.40
2022-10-16T20:20:49.558Z,7.00
2022-10-16T20:23:15.920Z,3.80
2022-10-16T20:25:43.107Z,5.50
2022-10-16T20:28:16.590Z,4.20
2022-10-16T20:30:46.354Z,4.40
2022-10-16T20:33:15.049Z,3.90
2022-10-16T20:35:49.839Z,6.80
2022-10-16T20:38:17.967Z,3.00
2022-10-16T20:40:48.446Z,3.50
2022-10-16T20:43:20.150Z,2.80
2022-10-16T20:45:46.681Z,3.50
2022-10-16T20:48:14.977Z,4.40
2022-10-16T20:50:42.180Z,3.20
2022-10-16T20:53:08.903Z,4.10
2022-10-16T20:55:38.315Z,5.10
2022-10-16T20:58:05.724Z,4.20
2022-10-16T21:00:32.367Z,4.10
2022-10-16T21:02:58.775Z,5.50
2022-10-16T21:05:28.837Z,4.30
2022-10-16T21:07:55.647Z,4.10
2022-10-16T21:10:25.576Z,4.50
2022-10-16T21:12:55.567Z,4.70
2022-10-16T21:15:22.542Z,5.20
2022-10-16T21:17:52.155Z,4.00
2022-10-16T21:20:18.855Z,3.20
2022-10-16T21:22:48.048Z,3.80
2022-10-16T21:25:14.550Z,5.90
2022-10-16T21:27:41.365Z,4.10
2022-10-16T21:30:09.696Z,4.10
2022-10-16T21:32:37.663Z,4.30
2022-10-16T21:35:05.715Z,3.80
2022-10-16T21:37:32.321Z,4.20
2022-10-16T21:39:58.721Z,5.20
2022-10-16T21:42:25.344Z,5.50
2022-10-16T21:44:51.894Z,4.50
2022-10-16T21:47:18.310Z,3.20
2022-10-16T21:49:44.696Z,2.90
2022-10-16T21:52:11.645Z,4.30
2022-10-16T21:54:38.119Z,4.00
2022-10-16T21:59:35.881Z,5.00
2022-10-16T22:02:03.178Z,4.60
2022-10-16T22:04:29.818Z,3.40
2022-10-16T22:06:56.285Z,4.20
2022-10-16T22:09:22.768Z,3.90
2022-10-16T22:11:50.548Z,4.10
2022-10-16T22:14:19.637Z,3.50
2022-10-16T22:16:47.724Z,3.50
2022-10-16T22:19:19.335Z,6.00
2022-10-16T22:21:47.343Z,3.10
2022-10-16T22:24:15.664Z,4.40
2022-10-16T22:26:42.357Z,4.30
2022-10-16T22:29:12.908Z,4.00
2022-10-16T22:31:39.364Z,3.60
2022-10-16T22:34:06.039Z,4.70
2022-10-16T22:36:34.101Z,3.70
2022-10-16T22:39:01.115Z,3.50
2022-10-16T22:41:27.469Z,3.80
2022-10-16T22:43:54.273Z,4.20
2022-10-16T22:46:29.357Z,3.10
2022-10-16T22:48:56.875Z,4.30
2022-10-16T22:51:24.936Z,3.00
2022-10-16T22:53:51.859Z,6.00
2022-10-16T22:56:20.229Z,4.00
2022-10-16T22:58:47.145Z,3.50
2022-10-16T23:01:36.197Z,3.00
2022-10-16T23:04:03.297Z,4.10
2022-10-16T23:06:30.509Z,4.30
2022-10-16T23:08:59.859Z,4.70
2022-10-16T23:11:28.090Z,3.40
2022-10-16T23:13:57.496Z,5.80
2022-10-16T23:16:25.460Z,4.40
2022-10-16T23:18:52.597Z,4.70
2022-10-16T23:21:22.646Z,7.60
2022-10-16T23:23:50.211Z,8.50
2022-10-16T23:26:20.363Z,7.80
2022-10-16T23:28:47.182Z,5.10
2022-10-16T23:31:15.425Z,7.20
2022-10-16T23:33:42.084Z,7.20
2022-10-16T23:36:17.703Z,8.30
2022-10-16T23:38:44.542Z,9.40
2022-10-16T23:41:12.052Z,6.40
2022-10-16T23:43:38.900Z,8.80
2022-10-16T23:46:07.102Z,11.20
2022-10-16T23:48:33.932Z,8.80
2022-10-16T23:51:00.940Z,8.40
2022-10-16T23:53:27.379Z,10.20
2022-10-16T23:55:53.773Z,8.30
2022-10-16T23:58:20.245Z,9.50
